createdAt,value
2022-08-17T00:00:17.304Z,98275.16
2022-08-17T00:03:11.763Z,98284.66
2022-08-17T00:05:51.171Z,98291.00
2022-08-17T00:08:24.894Z,98297.22
2022-08-17T00:10:53.535Z,98294.78
2022-08-17T00:13:33.882Z,98298.41
2022-08-17T00:16:06.726Z,98293.28
2022-08-17T00:19:01.245Z,98291.19
2022-08-17T00:21:25.136Z,98291.56
2022-08-17T00:23:53.078Z,98284.88
2022-08-17T00:26:44.242Z,98278.94
2022-08-17T00:29:08.929Z,98277.56
2022-08-17T00:31:36.863Z,98276.75
2022-08-17T00:34:06.081Z,98278.69
2022-08-17T00:36:32.850Z,98279.69
2022-08-17T00:38:59.615Z,98266.97
2022-08-17T00:41:28.447Z,98270.91
2022-08-17T00:44:02.311Z,98274.25
2022-08-17T00:46:38.071Z,98277.13
2022-08-17T00:49:05.827Z,98272.88
2022-08-17T00:51:54.715Z,98267.56
2022-08-17T00:54:29.453Z,98283.28
2022-08-17T00:57:02.941Z,98280.19
2022-08-17T00:59:44.968Z,98288.59
2022-08-17T01:02:16.872Z,98287.41
2022-08-17T01:04:46.480Z,98281.06
2022-08-17T01:07:15.167Z,98285.75
2022-08-17T01:09:42.988Z,98278.88
2022-08-17T01:12:11.986Z,98273.97
2022-08-17T01:14:40.289Z,98273.66
2022-08-17T01:17:08.064Z,98264.84
2022-08-17T01:19:39.635Z,98274.75
2022-08-17T01:22:11.332Z,98276.41
2022-08-17T01:24:50.723Z,98276.13
2022-08-17T01:27:18.468Z,98286.34
2022-08-17T01:29:52.534Z,98287.94
2022-08-17T01:32:19.939Z,98282.81
2022-08-17T01:34:50.573Z,98283.53
2022-08-17T01:37:19.636Z,98293.03
2022-08-17T01:40:06.501Z,98279.28
2022-08-17T01:42:37.966Z,98289.72
2022-08-17T01:45:14.771Z,98284.59
2022-08-17T01:47:41.798Z,98283.44
2022-08-17T01:50:15.854Z,98276.72
2022-08-17T01:52:49.277Z,98279.66
2022-08-17T01:55:24.581Z,98271.72
2022-08-17T01:57:53.898Z,98274.50
2022-08-17T02:00:21.657Z,98270.19
2022-08-17T02:02:48.777Z,98274.34
2022-08-17T02:05:15.790Z,98283.31
2022-08-17T02:07:59.581Z,98278.78
2022-08-17T02:10:33.763Z,98279.56
2022-08-17T02:13:04.137Z,98279.84
2022-08-17T02:15:32.145Z,98277.94
2022-08-17T02:17:58.938Z,98273.50
2022-08-17T02:20:41.631Z,98268.84
2022-08-17T02:23:11.725Z,98264.19
2022-08-17T02:25:40.331Z,98269.34
2022-08-17T02:28:06.984Z,98265.66
2022-08-17T02:30:59.656Z,98256.22
2022-08-17T02:33:20.924Z,98258.63
2022-08-17T02:35:48.441Z,98260.22
2022-08-17T02:38:15.158Z,98257.59
2022-08-17T02:40:41.890Z,98261.66
2022-08-17T02:43:09.175Z,98253.97
2022-08-17T02:45:36.268Z,98260.41
2022-08-17T02:48:03.940Z,98250.00
2022-08-17T02:50:30.921Z,98256.03
2022-08-17T02:53:02.280Z,98255.59
2022-08-17T02:55:37.253Z,98257.97
2022-08-17T02:58:05.024Z,98254.13
2022-08-17T03:00:41.015Z,98259.97
2022-08-17T03:03:08.952Z,98261.19
2022-08-17T03:05:38.394Z,98259.88
2022-08-17T03:08:06.932Z,98268.16
2022-08-17T03:10:39.719Z,98264.06
2022-08-17T03:13:06.588Z,98269.25
2022-08-17T03:15:34.440Z,98263.13
2022-08-17T03:18:02.614Z,98263.78
2022-08-17T03:20:36.088Z,98263.44
2022-08-17T03:23:03.761Z,98259.25
2022-08-17T03:25:42.753Z,98268.44
2022-08-17T03:28:12.028Z,98271.47
2022-08-17T03:30:39.841Z,98270.16
2022-08-17T03:33:12.193Z,98271.69
2022-08-17T03:35:40.411Z,98275.28
2022-08-17T03:38:12.223Z,98275.53
2022-08-17T03:40:56.514Z,98280.00
2022-08-17T03:43:31.527Z,98272.50
2022-08-17T03:46:34.138Z,98274.75
2022-08-17T03:49:25.716Z,98270.84
2022-08-17T03:52:12.807Z,98279.91
2022-08-17T03:54:58.677Z,98281.75
2022-08-17T03:57:26.730Z,98275.38
2022-08-17T03:59:55.162Z,98271.59
2022-08-17T04:02:32.306Z,98272.44
2022-08-17T04:04:59.384Z,98270.19
2022-08-17T04:07:30.446Z,98264.25
2022-08-17T04:09:57.998Z,98272.78
2022-08-17T04:12:30.426Z,98265.22
2022-08-17T04:14:57.312Z,98272.81
2022-08-17T04:17:27.216Z,98270.78
2022-08-17T04:19:55.301Z,98279.72
2022-08-17T04:22:33.155Z,98271.97
2022-08-17T04:25:33.628Z,98274.13
2022-08-17T04:28:01.404Z,98274.03
2022-08-17T04:30:31.996Z,98274.25
2022-08-17T04:33:13.909Z,98263.94
2022-08-17T04:35:51.509Z,98274.34
2022-08-17T04:38:22.608Z,98274.28
2022-08-17T04:41:08.384Z,98276.66
2022-08-17T04:43:37.395Z,98274.94
2022-08-17T04:46:09.409Z,98272.13
2022-08-17T04:48:40.443Z,98267.69
2022-08-17T04:51:27.902Z,98270.84
2022-08-17T04:53:58.951Z,98268.28
2022-08-17T04:56:27.549Z,98272.16
2022-08-17T04:58:58.486Z,98274.25
2022-08-17T05:01:28.401Z,98269.50
2022-08-17T05:04:18.390Z,98265.31
2022-08-17T05:06:49.513Z,98269.81
2022-08-17T05:09:17.762Z,98268.78
2022-08-17T05:11:45.890Z,98279.34
2022-08-17T05:14:13.707Z,98285.34
2022-08-17T05:16:40.490Z,98281.59
2022-08-17T05:19:07.259Z,98285.16
2022-08-17T05:21:33.980Z,98291.66
2022-08-17T05:24:00.713Z,98296.25
2022-08-17T05:26:29.466Z,98291.34
2022-08-17T05:29:00.470Z,98297.28
2022-08-17T05:31:30.681Z,98287.84
2022-08-17T05:33:58.361Z,98298.28
2022-08-17T05:36:42.014Z,98295.50
2022-08-17T05:39:16.232Z,98301.53
2022-08-17T05:41:43.446Z,98307.56
2022-08-17T05:44:10.739Z,98312.31
2022-08-17T05:46:41.837Z,98300.50
2022-08-17T05:49:17.819Z,98303.97
2022-08-17T05:52:09.106Z,98303.22
2022-08-17T05:54:51.150Z,98298.75
2022-08-17T05:57:36.896Z,98295.91
2022-08-17T06:00:50.617Z,98286.19
2022-08-17T06:03:59.954Z,98290.25
2022-08-17T06:06:52.338Z,98287.38
2022-08-17T06:09:33.688Z,98289.22
2022-08-17T06:12:21.380Z,98287.38
2022-08-17T06:15:24.499Z,98285.22
2022-08-17T06:17:57.396Z,98282.84
2022-08-17T06:20:30.345Z,98282.84
2022-08-17T06:23:04.961Z,98285.44
2022-08-17T06:25:47.011Z,98290.75
2022-08-17T06:28:24.167Z,98295.34
2022-08-17T06:31:00.637Z,98306.31
2022-08-17T06:33:36.020Z,98307.50
2022-08-17T06:37:05.759Z,98301.09
2022-08-17T06:40:07.250Z,98307.69
2022-08-17T06:43:06.680Z,98302.38
2022-08-17T06:45:56.286Z,98296.44
2022-08-17T06:48:42.698Z,98282.84
2022-08-17T06:51:25.808Z,98298.25
2022-08-17T06:54:22.336Z,98300.28
2022-08-17T06:57:00.627Z,98290.69
2022-08-17T06:59:54.529Z,98295.94
2022-08-17T07:02:52.015Z,98303.81
2022-08-17T07:05:24.887Z,98309.34
2022-08-17T07:08:11.521Z,98306.69
2022-08-17T07:11:09.754Z,98311.97
2022-08-17T07:14:17.162Z,98301.69
2022-08-17T07:16:51.741Z,98306.69
2022-08-17T07:19:23.239Z,98311.00
2022-08-17T07:22:04.777Z,98317.63
2022-08-17T07:24:43.109Z,98317.00
2022-08-17T07:27:28.022Z,98312.44
2022-08-17T07:30:10.614Z,98308.97
2022-08-17T07:33:13.221Z,98306.03
2022-08-17T07:35:44.973Z,98309.00
2022-08-17T07:38:28.016Z,98310.31
2022-08-17T07:40:57.899Z,98300.72
2022-08-17T07:43:34.554Z,98309.09
2022-08-17T07:46:44.747Z,98304.53
2022-08-17T07:49:12.485Z,98308.50
2022-08-17T07:51:50.371Z,98308.91
2022-08-17T07:54:22.404Z,98306.34
2022-08-17T07:56:53.594Z,98305.69
2022-08-17T07:59:37.683Z,98313.44
2022-08-17T08:02:34.227Z,98311.75
2022-08-17T08:05:50.335Z,98319.28
2022-08-17T08:08:42.629Z,98319.41
2022-08-17T08:11:15.268Z,98330.38
2022-08-17T08:13:45.244Z,98337.09
2022-08-17T08:16:19.804Z,98333.91
2022-08-17T08:18:55.361Z,98335.56
2022-08-17T08:21:46.318Z,98345.31
2022-08-17T08:24:23.971Z,98342.78
2022-08-17T08:27:08.122Z,98329.66
2022-08-17T08:30:00.583Z,98329.00
2022-08-17T08:33:12.829Z,98342.59
2022-08-17T08:35:57.152Z,98343.78
2022-08-17T08:38:53.848Z,98347.78
2022-08-17T08:42:07.579Z,98352.22
2022-08-17T08:45:00.784Z,98355.25
2022-08-17T08:47:53.817Z,98355.03
2022-08-17T08:50:38.782Z,98360.44
2022-08-17T08:53:34.838Z,98367.50
2022-08-17T08:56:58.999Z,98370.44
2022-08-17T08:59:44.320Z,98372.53
2022-08-17T09:02:50.974Z,98375.09
2022-08-17T09:05:55.910Z,98368.16
2022-08-17T09:08:40.824Z,98367.72
2022-08-17T09:12:02.931Z,98366.50
2022-08-17T09:14:45.008Z,98371.38
2022-08-17T09:17:20.398Z,98368.16
2022-08-17T09:20:11.212Z,98354.81
2022-08-17T09:22:51.140Z,98362.13
2022-08-17T09:25:26.849Z,98372.38
2022-08-17T09:28:00.738Z,98368.31
2022-08-17T09:30:37.199Z,98377.66
2022-08-17T09:33:09.090Z,98386.47
2022-08-17T09:35:45.344Z,98382.22
2022-08-17T09:38:34.716Z,98394.59
2022-08-17T09:41:31.613Z,98392.59
2022-08-17T09:44:45.109Z,98382.81
2022-08-17T09:47:41.971Z,98389.16
2022-08-17T09:51:03.940Z,98374.53
2022-08-17T09:53:25.269Z,98369.09
2022-08-17T09:56:40.003Z,98366.97
2022-08-17T09:59:48.456Z,98358.75
2022-08-17T10:02:26.686Z,98347.88
2022-08-17T10:05:05.360Z,98359.78
2022-08-17T10:08:09.116Z,98351.72
2022-08-17T10:10:58.684Z,98353.16
2022-08-17T10:13:41.929Z,98358.19
2022-08-17T10:16:43.249Z,98363.25
2022-08-17T10:19:38.013Z,98366.28
2022-08-17T10:23:07.903Z,98375.06
2022-08-17T10:26:12.815Z,98372.44
2022-08-17T10:29:12.565Z,98376.19
2022-08-17T10:31:46.141Z,98373.66
2022-08-17T10:34:53.633Z,98372.59
2022-08-17T10:37:37.061Z,98386.28
2022-08-17T10:40:21.225Z,98386.16
2022-08-17T10:43:29.265Z,98386.28
2022-08-17T10:46:31.205Z,98389.78
2022-08-17T10:49:18.655Z,98390.28
2022-08-17T10:51:48.534Z,98397.41
2022-08-17T10:54:24.257Z,98392.22
2022-08-17T10:56:54.085Z,98399.06
2022-08-17T10:59:36.083Z,98406.38
2022-08-17T11:02:23.005Z,98420.22
2022-08-17T11:05:23.853Z,98416.09
2022-08-17T11:08:27.956Z,98415.03
2022-08-17T11:11:19.725Z,98421.63
2022-08-17T11:14:25.982Z,98423.72
2022-08-17T11:17:31.642Z,98407.84
2022-08-17T11:20:30.140Z,98393.38
2022-08-17T11:23:20.905Z,98389.69
2022-08-17T11:25:58.135Z,98402.13
2022-08-17T11:28:45.961Z,98400.69
2022-08-17T11:31:59.783Z,98406.09
2022-08-17T11:34:29.055Z,98404.38
2022-08-17T11:37:17.959Z,98407.22
2022-08-17T11:40:18.018Z,98403.38
2022-08-17T11:43:32.024Z,98409.88
2022-08-17T11:46:17.822Z,98412.94
2022-08-17T11:49:26.178Z,98414.81
2022-08-17T11:52:01.123Z,98415.63
2022-08-17T11:54:33.340Z,98415.50
2022-08-17T11:57:29.164Z,98417.47
2022-08-17T12:00:10.430Z,98410.66
2022-08-17T12:02:48.103Z,98410.56
2022-08-17T12:05:16.769Z,98410.88
2022-08-17T12:08:21.768Z,98395.91
2022-08-17T12:11:00.641Z,98395.41
2022-08-17T12:13:38.456Z,98417.47
2022-08-17T12:16:08.158Z,98416.78
2022-08-17T12:18:38.255Z,98419.56
2022-08-17T12:21:27.948Z,98416.78
2022-08-17T12:24:06.364Z,98410.81
2022-08-17T12:26:35.695Z,98412.47
2022-08-17T12:29:18.362Z,98404.44
2022-08-17T12:32:02.134Z,98409.53
2022-08-17T12:34:41.213Z,98409.53
2022-08-17T12:37:20.519Z,98406.00
2022-08-17T12:40:01.603Z,98398.06
2022-08-17T12:42:37.208Z,98403.91
2022-08-17T12:45:29.274Z,98412.66
2022-08-17T12:48:10.163Z,98409.75
2022-08-17T12:50:44.360Z,98405.41
2022-08-17T12:53:27.149Z,98406.81
2022-08-17T12:55:55.440Z,98395.16
2022-08-17T12:58:29.076Z,98392.28
2022-08-17T13:01:09.086Z,98388.66
2022-08-17T13:03:44.350Z,98381.38
2022-08-17T13:06:14.791Z,98365.19
2022-08-17T13:08:46.081Z,98376.00
2022-08-17T13:11:18.486Z,98378.13
2022-08-17T13:13:55.842Z,98379.09
2022-08-17T13:16:26.583Z,98380.28
2022-08-17T13:19:06.593Z,98368.88
2022-08-17T13:21:35.096Z,98373.22
2022-08-17T13:24:04.859Z,98370.41
2022-08-17T13:26:43.138Z,98355.00
2022-08-17T13:30:00.152Z,98349.97
2022-08-17T13:32:44.123Z,98356.38
2022-08-17T13:35:39.765Z,98361.63
2022-08-17T13:38:15.063Z,98368.94
2022-08-17T13:40:45.513Z,98352.88
2022-08-17T13:43:37.251Z,98348.56
2022-08-17T13:46:11.782Z,98339.81
2022-08-17T13:48:38.871Z,98329.53
2022-08-17T13:51:45.366Z,98335.44
2022-08-17T13:54:26.079Z,98326.69
2022-08-17T13:57:07.010Z,98336.81
2022-08-17T13:59:53.275Z,98331.06
2022-08-17T14:02:22.789Z,98335.41
2022-08-17T14:04:53.883Z,98341.19
2022-08-17T14:07:36.698Z,98329.63
2022-08-17T14:10:11.801Z,98323.75
2022-08-17T14:12:43.685Z,98326.53
2022-08-17T14:15:13.533Z,98322.09
2022-08-17T14:17:40.210Z,98328.66
2022-08-17T14:20:11.649Z,98327.84
2022-08-17T14:22:44.278Z,98327.84
2022-08-17T14:25:14.185Z,98312.22
2022-08-17T14:27:52.442Z,98303.00
2022-08-17T14:30:26.983Z,98304.31
2022-08-17T14:32:57.826Z,98301.13
2022-08-17T14:35:25.294Z,98299.81
2022-08-17T14:37:52.640Z,98298.59
2022-08-17T14:40:24.303Z,98287.47
2022-08-17T14:42:53.190Z,98289.84
2022-08-17T14:45:30.336Z,98297.13
2022-08-17T14:48:04.012Z,98292.97
2022-08-17T14:50:31.798Z,98299.38
2022-08-17T14:53:01.344Z,98298.66
2022-08-17T14:55:29.610Z,98283.94
2022-08-17T14:57:56.414Z,98279.44
2022-08-17T15:00:23.146Z,98274.41
2022-08-17T15:02:58.031Z,98273.63
2022-08-17T15:05:33.402Z,98270.72
2022-08-17T15:08:01.567Z,98285.13
2022-08-17T15:10:29.995Z,98271.38
2022-08-17T15:12:57.350Z,98280.94
2022-08-17T15:15:24.703Z,98288.34
2022-08-17T15:17:51.737Z,98294.16
2022-08-17T15:20:23.934Z,98289.94
2022-08-17T15:22:51.071Z,98281.22
2022-08-17T15:25:22.422Z,98279.66
2022-08-17T15:27:49.325Z,98270.94
2022-08-17T15:30:16.567Z,98278.22
2022-08-17T15:32:51.307Z,98278.31
2022-08-17T15:35:26.917Z,98279.69
2022-08-17T15:37:54.490Z,98273.16
2022-08-17T15:40:21.283Z,98272.38
2022-08-17T15:42:47.938Z,98270.09
2022-08-17T15:45:16.709Z,98251.88
2022-08-17T15:47:43.441Z,98261.22
2022-08-17T15:50:10.583Z,98256.34
2022-08-17T15:52:40.158Z,98264.28
2022-08-17T15:55:13.516Z,98269.03
2022-08-17T15:57:40.652Z,98260.50
2022-08-17T16:00:09.636Z,98262.09
2022-08-17T16:03:46.978Z,98256.25
2022-08-17T16:05:27.975Z,98259.31
2022-08-17T16:07:55.804Z,98258.03
2022-08-17T16:10:23.148Z,98247.81
2022-08-17T16:13:01.817Z,98252.00
2022-08-17T16:15:30.870Z,98247.59
2022-08-17T16:17:57.629Z,98249.25
2022-08-17T16:20:24.302Z,98249.25
2022-08-17T16:22:51.308Z,98259.34
2022-08-17T16:25:52.168Z,98258.00
2022-08-17T16:28:16.524Z,98257.91
2022-08-17T16:30:43.488Z,98259.47
2022-08-17T16:33:13.458Z,98262.38
2022-08-17T16:35:41.775Z,98250.69
2022-08-17T16:38:09.454Z,98246.28
2022-08-17T16:40:37.955Z,98238.94
2022-08-17T16:43:10.282Z,98239.03
2022-08-17T16:45:40.363Z,98250.06
2022-08-17T16:48:08.505Z,98250.63
2022-08-17T16:50:36.260Z,98254.94
2022-08-17T16:53:17.007Z,98262.28
2022-08-17T16:55:45.499Z,98267.44
2022-08-17T16:58:12.396Z,98252.09
2022-08-17T17:00:39.377Z,98262.91
2022-08-17T17:03:20.530Z,98260.78
2022-08-17T17:06:13.333Z,98266.59
2022-08-17T17:08:48.355Z,98268.22
2022-08-17T17:11:53.584Z,98269.59
2022-08-17T17:14:29.586Z,98268.88
2022-08-17T17:17:12.536Z,98271.03
2022-08-17T17:19:57.378Z,98269.56
2022-08-17T17:22:36.429Z,98265.19
2022-08-17T17:25:25.249Z,98266.09
2022-08-17T17:28:08.065Z,98268.19
2022-08-17T17:30:55.100Z,98260.94
2022-08-17T17:33:32.870Z,98256.59
2022-08-17T17:36:18.583Z,98249.31
2022-08-17T17:39:01.606Z,98250.81
2022-08-17T17:41:39.917Z,98257.41
2022-08-17T17:44:17.869Z,98258.09
2022-08-17T17:46:54.173Z,98247.94
2022-08-17T17:49:22.667Z,98249.47
2022-08-17T17:52:18.948Z,98246.59
2022-08-17T17:55:13.053Z,98253.81
2022-08-17T17:57:46.793Z,98254.63
2022-08-17T18:00:19.414Z,98254.59
2022-08-17T18:03:24.722Z,98256.81
2022-08-17T18:06:21.184Z,98256.81
2022-08-17T18:09:23.794Z,98254.63
2022-08-17T18:12:11.091Z,98254.63
2022-08-17T18:15:04.300Z,98245.88
2022-08-17T18:17:31.053Z,98248.06
2022-08-17T18:19:57.808Z,98252.44
2022-08-17T18:22:26.277Z,98262.59
2022-08-17T18:24:58.140Z,98259.66
2022-08-17T18:27:38.447Z,98275.63
2022-08-17T18:30:13.924Z,98269.78
2022-08-17T18:32:46.193Z,98277.66
2022-08-17T18:35:14.119Z,98273.19
2022-08-17T18:37:57.513Z,98276.78
2022-08-17T18:40:37.406Z,98287.34
2022-08-17T18:43:23.994Z,98280.69
2022-08-17T18:45:55.167Z,98281.19
2022-08-17T18:48:49.134Z,98290.41
2022-08-17T18:51:40.719Z,98294.53
2022-08-17T18:54:21.490Z,98286.47
2022-08-17T18:56:58.927Z,98294.19
2022-08-17T18:59:49.174Z,98288.09
2022-08-17T19:02:38.618Z,98295.53
2022-08-17T19:05:15.393Z,98300.16
2022-08-17T19:07:47.979Z,98306.03
2022-08-17T19:10:25.845Z,98312.97
2022-08-17T19:13:23.817Z,98307.59
2022-08-17T19:16:18.987Z,98316.50
2022-08-17T19:18:50.838Z,98327.19
2022-08-17T19:21:31.953Z,98324.72
2022-08-17T19:24:09.565Z,98330.28
2022-08-17T19:26:54.572Z,98335.97
2022-08-17T19:29:47.273Z,98337.22
2022-08-17T19:32:21.545Z,98345.31
2022-08-17T19:34:51.200Z,98340.66
2022-08-17T19:37:32.877Z,98336.94
2022-08-17T19:40:48.973Z,98334.19
2022-08-17T19:43:32.052Z,98339.44
2022-08-17T19:46:36.113Z,98332.09
2022-08-17T19:50:15.221Z,98322.47
2022-08-17T19:52:57.921Z,98331.91
2022-08-17T19:55:50.889Z,98326.59
2022-08-17T19:58:42.581Z,98332.47
2022-08-17T20:01:20.646Z,98339.34
2022-08-17T20:04:08.196Z,98344.69
2022-08-17T20:06:39.381Z,98350.13
2022-08-17T20:09:34.132Z,98351.03
2022-08-17T20:12:13.373Z,98347.72
2022-08-17T20:14:51.720Z,98349.28
2022-08-17T20:17:31.337Z,98341.34
2022-08-17T20:20:41.701Z,98343.34
2022-08-17T20:23:37.631Z,98337.78
2022-08-17T20:26:26.249Z,98349.66
2022-08-17T20:29:13.993Z,98351.78
2022-08-17T20:31:49.409Z,98357.91
2022-08-17T20:34:25.721Z,98347.84
2022-08-17T20:37:32.841Z,98358.81
2022-08-17T20:39:59.464Z,98343.72
2022-08-17T20:42:27.055Z,98347.72
2022-08-17T20:45:21.710Z,98349.00
2022-08-17T20:48:21.586Z,98347.75
2022-08-17T20:50:52.734Z,98348.22
2022-08-17T20:53:47.477Z,98350.28
2022-08-17T20:56:46.453Z,98356.50
2022-08-17T20:59:30.292Z,98346.00
2022-08-17T21:02:18.405Z,98347.16
2022-08-17T21:04:52.736Z,98343.53
2022-08-17T21:07:33.005Z,98343.03
2022-08-17T21:10:22.177Z,98346.66
2022-08-17T21:13:04.534Z,98354.44
2022-08-17T21:15:43.050Z,98354.72
2022-08-17T21:18:38.578Z,98359.63
2022-08-17T21:21:37.438Z,98357.50
2022-08-17T21:24:35.144Z,98364.16
2022-08-17T21:27:23.517Z,98375.03
2022-08-17T21:30:14.163Z,98386.75
2022-08-17T21:33:03.991Z,98386.91
2022-08-17T21:35:58.644Z,98394.94
2022-08-17T21:39:08.560Z,98394.19
2022-08-17T21:41:52.654Z,98392.97
2022-08-17T21:44:35.132Z,98404.38
2022-08-17T21:47:25.280Z,98401.97
2022-08-17T21:49:54.465Z,98392.38
2022-08-17T21:52:26.856Z,98404.75
2022-08-17T21:54:58.759Z,98403.06
2022-08-17T21:57:28.131Z,98402.25
2022-08-17T22:00:02.312Z,98409.03
2022-08-17T22:02:35.575Z,98409.16
2022-08-17T22:05:13.588Z,98400.31
2022-08-17T22:08:01.910Z,98398.22
2022-08-17T22:10:39.279Z,98389.31
2022-08-17T22:13:17.520Z,98390.97
2022-08-17T22:16:15.363Z,98394.94
2022-08-17T22:18:53.734Z,98401.88
2022-08-17T22:21:22.548Z,98404.56
2022-08-17T22:24:15.706Z,98408.44
2022-08-17T22:27:10.865Z,98418.28
2022-08-17T22:29:59.598Z,98412.16
2022-08-17T22:32:40.053Z,98406.69
2022-08-17T22:35:38.300Z,98402.63
2022-08-17T22:38:20.372Z,98403.94
2022-08-17T22:40:53.745Z,98400.31
2022-08-17T22:43:26.542Z,98399.59
2022-08-17T22:45:57.704Z,98401.13
2022-08-17T22:48:27.981Z,98396.97
2022-08-17T22:51:13.266Z,98418.91
2022-08-17T22:54:13.790Z,98414.22
2022-08-17T22:57:18.740Z,98418.69
2022-08-17T22:59:51.397Z,98426.22
2022-08-17T23:02:31.499Z,98429.06
2022-08-17T23:05:12.660Z,98431.69
2022-08-17T23:07:40.324Z,98434.94
2022-08-17T23:10:09.953Z,98423.38
2022-08-17T23:12:38.746Z,98427.78
2022-08-17T23:15:15.474Z,98418.44
2022-08-17T23:17:42.528Z,98419.81
2022-08-17T23:20:15.116Z,98419.22
2022-08-17T23:22:52.418Z,98411.44
2022-08-17T23:25:28.191Z,98421.34
2022-08-17T23:27:57.521Z,98415.81
2022-08-17T23:30:28.438Z,98419.91
2022-08-17T23:32:56.421Z,98422.03
2022-08-17T23:35:38.904Z,98413.88
2022-08-17T23:38:10.126Z,98417.25
2022-08-17T23:40:39.198Z,98415.50
2022-08-17T23:43:23.435Z,98425.69
2022-08-17T23:45:57.245Z,98421.16
2022-08-17T23:48:35.159Z,98433.31
2022-08-17T23:51:38.151Z,98435.13
2022-08-17T23:54:34.722Z,98426.31
2022-08-17T23:57:04.489Z,98424.19
2022-08-17T23:59:33.237Z,98431.97
